Allegre, Kentucky
Current Conditions -  °F | °C
As of 7:10 AM on Sunday 23 Nov 2014 (Local Time) from KHOP Reporting Station
Overcast Overcast  
Wind Chill: 11°   Ceiling: 2900
Heat Index: 11°   Visibility: 10mi
Dew Point:   Wind: 8mph
Humidity: 82%   Direction: 110°ESE
Pressure: 29.85"   Gusts: NA
Location:  36.93°N, 87.22°W
Report Text: KHOP 231310Z AUTO 11007KT 10SM FEW019 BKN029 BKN038 OVC048 11/08 A2985 RMK AO2 CIG 029V039
Loading
Personal Weather Stations






























Interactive Weather Map New forecast layout! Learn more

10-Day Weather Forecast

Advertisements
Track Severe Weather on mobile